sensor_id;sensor_type;location;lat;lon;timestamp;P1;durP1;ratioP1;P2;durP2;ratioP2
78834;SDS011;68187;42.682;23.352;2024-01-15T00:02:18;78.38;;;39.90;;
78834;SDS011;68187;42.682;23.352;2024-01-15T00:04:45;82.47;;;45.42;;
78834;SDS011;68187;42.682;23.352;2024-01-15T00:07:12;74.22;;;46.60;;
78834;SDS011;68187;42.682;23.352;2024-01-15T00:09:39;72.07;;;38.58;;
78834;SDS011;68187;42.682;23.352;2024-01-15T00:12:06;87.90;;;47.53;;
78834;SDS011;68187;42.682;23.352;2024-01-15T00:14:33;87.72;;;49.40;;
78834;SDS011;68187;42.682;23.352;2024-01-15T00:17:02;103.88;;;55.22;;
78834;SDS011;68187;42.682;23.352;2024-01-15T00:19:29;90.43;;;51.00;;
78834;SDS011;68187;42.682;23.352;2024-01-15T00:21:57;94.47;;;53.58;;
78834;SDS011;68187;42.682;23.352;2024-01-15T00:24:24;87.88;;;50.85;;
78834;SDS011;68187;42.682;23.352;2024-01-15T00:26:51;89.65;;;53.75;;
78834;SDS011;68187;42.682;23.352;2024-01-15T00:29:18;94.10;;;48.78;;
78834;SDS011;68187;42.682;23.352;2024-01-15T00:31:45;92.15;;;51.63;;
78834;SDS011;68187;42.682;23.352;2024-01-15T00:34:13;96.05;;;48.97;;
78834;SDS011;68187;42.682;23.352;2024-01-15T00:36:40;92.47;;;50.85;;
78834;SDS011;68187;42.682;23.352;2024-01-15T00:39:07;97.00;;;45.38;;
78834;SDS011;68187;42.682;23.352;2024-01-15T00:41:35;101.72;;;51.17;;
78834;SDS011;68187;42.682;23.352;2024-01-15T00:44:03;90.93;;;53.70;;
78834;SDS011;68187;42.682;23.352;2024-01-15T00:46:30;102.80;;;55.35;;
78834;SDS011;68187;42.682;23.352;2024-01-15T00:48:57;105.68;;;54.20;;
78834;SDS011;68187;42.682;23.352;2024-01-15T00:51:25;113.15;;;59.90;;
78834;SDS011;68187;42.682;23.352;2024-01-15T00:53:52;107.53;;;54.60;;
78834;SDS011;68187;42.682;23.352;2024-01-15T00:56:19;117.85;;;66.03;;
78834;SDS011;68187;42.682;23.352;2024-01-15T00:58:46;116.13;;;62.75;;
78834;SDS011;68187;42.682;23.352;2024-01-15T01:01:13;130.27;;;64.80;;
78834;SDS011;68187;42.682;23.352;2024-01-15T01:03:39;118.85;;;63.05;;
78834;SDS011;68187;42.682;23.352;2024-01-15T01:06:06;119.88;;;63.72;;
78834;SDS011;68187;42.682;23.352;2024-01-15T01:08:35;123.07;;;64.38;;
78834;SDS011;68187;42.682;23.352;2024-01-15T01:11:02;119.63;;;57.97;;
78834;SDS011;68187;42.682;23.352;2024-01-15T01:13:29;115.03;;;61.53;;
78834;SDS011;68187;42.682;23.352;2024-01-15T01:15:56;116.68;;;63.20;;
78834;SDS011;68187;42.682;23.352;2024-01-15T01:18:23;115.57;;;60.42;;
78834;SDS011;68187;42.682;23.352;2024-01-15T01:20:50;114.88;;;63.10;;
78834;SDS011;68187;42.682;23.352;2024-01-15T01:23:17;118.97;;;60.47;;
78834;SDS011;68187;42.682;23.352;2024-01-15T01:25:45;127.20;;;68.18;;
78834;SDS011;68187;42.682;23.352;2024-01-15T01:28:12;125.47;;;70.25;;
78834;SDS011;68187;42.682;23.352;2024-01-15T01:30:39;120.25;;;64.28;;
78834;SDS011;68187;42.682;23.352;2024-01-15T01:33:06;120.55;;;63.90;;
78834;SDS011;68187;42.682;23.352;2024-01-15T01:35:33;124.30;;;64.30;;
78834;SDS011;68187;42.682;23.352;2024-01-15T01:38:00;118.55;;;67.18;;
78834;SDS011;68187;42.682;23.352;2024-01-15T01:40:27;124.00;;;64.53;;
78834;SDS011;68187;42.682;23.352;2024-01-15T01:42:55;125.43;;;64.20;;
78834;SDS011;68187;42.682;23.352;2024-01-15T01:45:22;122.00;;;64.25;;
78834;SDS011;68187;42.682;23.352;2024-01-15T01:47:49;115.55;;;60.33;;
78834;SDS011;68187;42.682;23.352;2024-01-15T01:50:16;114.13;;;60.25;;
78834;SDS011;68187;42.682;23.352;2024-01-15T01:52:43;109.03;;;61.25;;
78834;SDS011;68187;42.682;23.352;2024-01-15T01:55:10;107.55;;;59.40;;
78834;SDS011;68187;42.682;23.352;2024-01-15T01:57:38;103.32;;;54.50;;
78834;SDS011;68187;42.682;23.352;2024-01-15T02:00:08;100.57;;;54.17;;
78834;SDS011;68187;42.682;23.352;2024-01-15T02:02:36;97.05;;;54.35;;
78834;SDS011;68187;42.682;23.352;2024-01-15T02:05:04;89.55;;;48.45;;
78834;SDS011;68187;42.682;23.352;2024-01-15T02:07:34;83.43;;;48.38;;
78834;SDS011;68187;42.682;23.352;2024-01-15T02:10:01;80.07;;;44.35;;
78834;SDS011;68187;42.682;23.352;2024-01-15T02:12:29;72.32;;;42.95;;
78834;SDS011;68187;42.682;23.352;2024-01-15T02:14:56;69.18;;;41.75;;
78834;SDS011;68187;42.682;23.352;2024-01-15T02:17:24;73.93;;;42.28;;
78834;SDS011;68187;42.682;23.352;2024-01-15T02:19:51;57.70;;;35.92;;
78834;SDS011;68187;42.682;23.352;2024-01-15T02:22:18;60.63;;;31.90;;
78834;SDS011;68187;42.682;23.352;2024-01-15T02:24:46;61.53;;;33.75;;
78834;SDS011;68187;42.682;23.352;2024-01-15T02:27:13;65.72;;;36.55;;
78834;SDS011;68187;42.682;23.352;2024-01-15T02:29:41;62.03;;;33.97;;
78834;SDS011;68187;42.682;23.352;2024-01-15T02:32:08;56.38;;;32.42;;
78834;SDS011;68187;42.682;23.352;2024-01-15T02:34:35;58.42;;;30.88;;
78834;SDS011;68187;42.682;23.352;2024-01-15T02:37:02;55.30;;;31.40;;
78834;SDS011;68187;42.682;23.352;2024-01-15T02:39:29;51.45;;;31.13;;
78834;SDS011;68187;42.682;23.352;2024-01-15T02:41:58;52.30;;;29.33;;
78834;SDS011;68187;42.682;23.352;2024-01-15T02:44:25;47.03;;;29.90;;
78834;SDS011;68187;42.682;23.352;2024-01-15T02:46:52;52.33;;;31.05;;
78834;SDS011;68187;42.682;23.352;2024-01-15T02:49:18;53.67;;;30.88;;
78834;SDS011;68187;42.682;23.352;2024-01-15T02:51:45;55.00;;;30.15;;
78834;SDS011;68187;42.682;23.352;2024-01-15T02:54:13;52.83;;;28.55;;
78834;SDS011;68187;42.682;23.352;2024-01-15T02:56:40;50.70;;;30.85;;
78834;SDS011;68187;42.682;23.352;2024-01-15T02:59:08;50.00;;;31.48;;
78834;SDS011;68187;42.682;23.352;2024-01-15T03:01:35;53.63;;;31.17;;
78834;SDS011;68187;42.682;23.352;2024-01-15T03:04:02;54.10;;;31.13;;
78834;SDS011;68187;42.682;23.352;2024-01-15T03:06:29;57.38;;;32.75;;
78834;SDS011;68187;42.682;23.352;2024-01-15T03:08:56;59.17;;;32.28;;
78834;SDS011;68187;42.682;23.352;2024-01-15T03:11:23;51.63;;;31.10;;
78834;SDS011;68187;42.682;23.352;2024-01-15T03:13:51;55.85;;;30.30;;
78834;SDS011;68187;42.682;23.352;2024-01-15T03:16:19;55.33;;;30.48;;
78834;SDS011;68187;42.682;23.352;2024-01-15T03:18:46;52.83;;;31.02;;
78834;SDS011;68187;42.682;23.352;2024-01-15T03:21:13;57.75;;;33.33;;
78834;SDS011;68187;42.682;23.352;2024-01-15T03:23:40;52.88;;;29.10;;
78834;SDS011;68187;42.682;23.352;2024-01-15T03:26:07;53.45;;;31.58;;
78834;SDS011;68187;42.682;23.352;2024-01-15T03:28:34;50.90;;;31.40;;
78834;SDS011;68187;42.682;23.352;2024-01-15T03:31:01;60.30;;;30.13;;
78834;SDS011;68187;42.682;23.352;2024-01-15T03:33:29;53.92;;;30.60;;
78834;SDS011;68187;42.682;23.352;2024-01-15T03:35:56;53.75;;;28.52;;
78834;SDS011;68187;42.682;23.352;2024-01-15T03:38:23;48.92;;;30.17;;
78834;SDS011;68187;42.682;23.352;2024-01-15T03:40:50;49.40;;;28.00;;
78834;SDS011;68187;42.682;23.352;2024-01-15T03:43:17;45.95;;;29.08;;
78834;SDS011;68187;42.682;23.352;2024-01-15T03:45:44;46.35;;;30.63;;
78834;SDS011;68187;42.682;23.352;2024-01-15T03:48:11;48.88;;;28.92;;
78834;SDS011;68187;42.682;23.352;2024-01-15T03:50:40;46.28;;;28.17;;
78834;SDS011;68187;42.682;23.352;2024-01-15T03:53:07;44.70;;;24.92;;
78834;SDS011;68187;42.682;23.352;2024-01-15T03:55:33;47.00;;;27.05;;
78834;SDS011;68187;42.682;23.352;2024-01-15T03:58:00;44.28;;;25.02;;
78834;SDS011;68187;42.682;23.352;2024-01-15T04:00:27;44.05;;;25.08;;
78834;SDS011;68187;42.682;23.352;2024-01-15T04:02:54;46.78;;;25.13;;
78834;SDS011;68187;42.682;23.352;2024-01-15T04:05:21;44.00;;;27.90;;
78834;SDS011;68187;42.682;23.352;2024-01-15T04:07:49;47.92;;;27.40;;
78834;SDS011;68187;42.682;23.352;2024-01-15T04:10:16;51.45;;;28.52;;
78834;SDS011;68187;42.682;23.352;2024-01-15T04:12:43;50.00;;;28.67;;
78834;SDS011;68187;42.682;23.352;2024-01-15T04:15:11;50.03;;;27.75;;
78834;SDS011;68187;42.682;23.352;2024-01-15T04:17:38;45.28;;;28.70;;
78834;SDS011;68187;42.682;23.352;2024-01-15T04:20:05;50.45;;;31.05;;
78834;SDS011;68187;42.682;23.352;2024-01-15T04:22:33;48.40;;;26.05;;
78834;SDS011;68187;42.682;23.352;2024-01-15T04:25:03;46.20;;;26.50;;
78834;SDS011;68187;42.682;23.352;2024-01-15T04:27:30;46.28;;;29.67;;
78834;SDS011;68187;42.682;23.352;2024-01-15T04:29:57;48.28;;;27.05;;
78834;SDS011;68187;42.682;23.352;2024-01-15T04:32:24;44.42;;;27.50;;
78834;SDS011;68187;42.682;23.352;2024-01-15T04:34:51;50.53;;;28.80;;
78834;SDS011;68187;42.682;23.352;2024-01-15T04:37:18;44.38;;;26.42;;
78834;SDS011;68187;42.682;23.352;2024-01-15T04:39:45;48.03;;;28.23;;
78834;SDS011;68187;42.682;23.352;2024-01-15T04:42:14;43.00;;;27.63;;
78834;SDS011;68187;42.682;23.352;2024-01-15T04:44:40;46.15;;;26.17;;
78834;SDS011;68187;42.682;23.352;2024-01-15T04:47:07;44.75;;;26.48;;
78834;SDS011;68187;42.682;23.352;2024-01-15T04:49:34;45.17;;;28.88;;
78834;SDS011;68187;42.682;23.352;2024-01-15T04:52:01;42.85;;;25.73;;
78834;SDS011;68187;42.682;23.352;2024-01-15T04:54:28;40.00;;;24.95;;
78834;SDS011;68187;42.682;23.352;2024-01-15T04:56:55;38.88;;;25.02;;
78834;SDS011;68187;42.682;23.352;2024-01-15T04:59:24;44.78;;;24.98;;
78834;SDS011;68187;42.682;23.352;2024-01-15T05:01:51;37.42;;;21.58;;
78834;SDS011;68187;42.682;23.352;2024-01-15T05:04:17;42.90;;;24.85;;
78834;SDS011;68187;42.682;23.352;2024-01-15T05:06:44;32.65;;;18.85;;
78834;SDS011;68187;42.682;23.352;2024-01-15T05:09:11;45.17;;;25.63;;
78834;SDS011;68187;42.682;23.352;2024-01-15T05:11:39;45.00;;;24.45;;
78834;SDS011;68187;42.682;23.352;2024-01-15T05:14:06;43.60;;;30.40;;
78834;SDS011;68187;42.682;23.352;2024-01-15T05:16:34;41.88;;;25.48;;
78834;SDS011;68187;42.682;23.352;2024-01-15T05:19:01;41.67;;;30.10;;
78834;SDS011;68187;42.682;23.352;2024-01-15T05:21:28;50.60;;;31.17;;
78834;SDS011;68187;42.682;23.352;2024-01-15T05:23:55;45.15;;;31.23;;
78834;SDS011;68187;42.682;23.352;2024-01-15T05:26:22;46.67;;;30.25;;
78834;SDS011;68187;42.682;23.352;2024-01-15T05:28:49;49.78;;;27.40;;
78834;SDS011;68187;42.682;23.352;2024-01-15T05:31:16;48.05;;;30.65;;
78834;SDS011;68187;42.682;23.352;2024-01-15T05:33:44;43.95;;;28.33;;
78834;SDS011;68187;42.682;23.352;2024-01-15T05:36:11;55.72;;;26.75;;
78834;SDS011;68187;42.682;23.352;2024-01-15T05:38:38;43.95;;;28.52;;
78834;SDS011;68187;42.682;23.352;2024-01-15T05:41:05;45.38;;;28.65;;
78834;SDS011;68187;42.682;23.352;2024-01-15T05:43:32;46.28;;;24.55;;
78834;SDS011;68187;42.682;23.352;2024-01-15T05:45:59;45.95;;;28.88;;
78834;SDS011;68187;42.682;23.352;2024-01-15T05:48:26;45.13;;;26.25;;
78834;SDS011;68187;42.682;23.352;2024-01-15T05:50:55;46.95;;;26.35;;
78834;SDS011;68187;42.682;23.352;2024-01-15T05:53:22;47.40;;;29.33;;
78834;SDS011;68187;42.682;23.352;2024-01-15T05:55:48;48.83;;;26.38;;
78834;SDS011;68187;42.682;23.352;2024-01-15T05:58:15;55.15;;;27.90;;
78834;SDS011;68187;42.682;23.352;2024-01-15T06:00:42;49.05;;;28.00;;
78834;SDS011;68187;42.682;23.352;2024-01-15T06:03:10;38.53;;;26.13;;
78834;SDS011;68187;42.682;23.352;2024-01-15T06:05:37;48.35;;;26.25;;
78834;SDS011;68187;42.682;23.352;2024-01-15T06:08:06;47.58;;;26.38;;
78834;SDS011;68187;42.682;23.352;2024-01-15T06:10:33;42.88;;;26.35;;
78834;SDS011;68187;42.682;23.352;2024-01-15T06:13:01;40.58;;;22.13;;
78834;SDS011;68187;42.682;23.352;2024-01-15T06:15:28;48.30;;;28.58;;
78834;SDS011;68187;42.682;23.352;2024-01-15T06:17:55;48.10;;;27.20;;
78834;SDS011;68187;42.682;23.352;2024-01-15T06:20:22;49.20;;;28.23;;
78834;SDS011;68187;42.682;23.352;2024-01-15T06:22:48;52.25;;;27.52;;
78834;SDS011;68187;42.682;23.352;2024-01-15T06:25:17;43.30;;;27.33;;
78834;SDS011;68187;42.682;23.352;2024-01-15T06:27:44;48.03;;;30.38;;
78834;SDS011;68187;42.682;23.352;2024-01-15T06:30:11;47.30;;;29.92;;
78834;SDS011;68187;42.682;23.352;2024-01-15T06:32:39;51.78;;;31.73;;
78834;SDS011;68187;42.682;23.352;2024-01-15T06:35:06;50.95;;;34.63;;
78834;SDS011;68187;42.682;23.352;2024-01-15T06:37:35;46.50;;;28.85;;
78834;SDS011;68187;42.682;23.352;2024-01-15T06:40:02;46.22;;;27.95;;
78834;SDS011;68187;42.682;23.352;2024-01-15T06:42:32;51.00;;;30.45;;
78834;SDS011;68187;42.682;23.352;2024-01-15T06:44:59;45.83;;;25.20;;
78834;SDS011;68187;42.682;23.352;2024-01-15T06:47:26;50.47;;;26.52;;
78834;SDS011;68187;42.682;23.352;2024-01-15T06:49:53;52.47;;;30.25;;
78834;SDS011;68187;42.682;23.352;2024-01-15T06:52:20;52.83;;;30.48;;
78834;SDS011;68187;42.682;23.352;2024-01-15T06:54:47;52.28;;;30.05;;
78834;SDS011;68187;42.682;23.352;2024-01-15T06:57:14;51.47;;;32.50;;
78834;SDS011;68187;42.682;23.352;2024-01-15T06:59:42;57.28;;;33.25;;
78834;SDS011;68187;42.682;23.352;2024-01-15T07:02:09;62.28;;;34.47;;
78834;SDS011;68187;42.682;23.352;2024-01-15T07:04:36;60.42;;;35.78;;
78834;SDS011;68187;42.682;23.352;2024-01-15T07:07:03;60.03;;;33.63;;
78834;SDS011;68187;42.682;23.352;2024-01-15T07:09:30;60.70;;;35.78;;
78834;SDS011;68187;42.682;23.352;2024-01-15T07:11:57;62.78;;;38.22;;
78834;SDS011;68187;42.682;23.352;2024-01-15T07:14:24;60.97;;;38.60;;
78834;SDS011;68187;42.682;23.352;2024-01-15T07:16:53;64.13;;;38.60;;
78834;SDS011;68187;42.682;23.352;2024-01-15T07:19:20;60.75;;;35.55;;
78834;SDS011;68187;42.682;23.352;2024-01-15T07:21:47;65.00;;;39.40;;
78834;SDS011;68187;42.682;23.352;2024-01-15T07:24:13;62.42;;;39.75;;
78834;SDS011;68187;42.682;23.352;2024-01-15T07:26:40;65.90;;;39.25;;
78834;SDS011;68187;42.682;23.352;2024-01-15T07:29:07;70.95;;;41.75;;
78834;SDS011;68187;42.682;23.352;2024-01-15T07:31:34;73.85;;;39.88;;
78834;SDS011;68187;42.682;23.352;2024-01-15T07:34:03;65.55;;;40.13;;
78834;SDS011;68187;42.682;23.352;2024-01-15T07:36:30;63.67;;;39.85;;
78834;SDS011;68187;42.682;23.352;2024-01-15T07:38:56;69.35;;;42.28;;
78834;SDS011;68187;42.682;23.352;2024-01-15T07:41:23;70.63;;;39.88;;
78834;SDS011;68187;42.682;23.352;2024-01-15T07:43:50;71.55;;;40.17;;
78834;SDS011;68187;42.682;23.352;2024-01-15T07:46:17;63.42;;;34.72;;
78834;SDS011;68187;42.682;23.352;2024-01-15T07:48:44;63.47;;;34.80;;
78834;SDS011;68187;42.682;23.352;2024-01-15T07:51:13;63.08;;;35.47;;
78834;SDS011;68187;42.682;23.352;2024-01-15T07:53:40;61.92;;;35.72;;
78834;SDS011;68187;42.682;23.352;2024-01-15T07:56:07;55.13;;;33.05;;
78834;SDS011;68187;42.682;23.352;2024-01-15T07:58:33;57.00;;;36.22;;
78834;SDS011;68187;42.682;23.352;2024-01-15T08:01:00;58.40;;;35.47;;
78834;SDS011;68187;42.682;23.352;2024-01-15T08:03:27;65.10;;;35.58;;
78834;SDS011;68187;42.682;23.352;2024-01-15T08:05:54;67.15;;;39.88;;
78834;SDS011;68187;42.682;23.352;2024-01-15T08:08:24;90.85;;;45.42;;
78834;SDS011;68187;42.682;23.352;2024-01-15T08:10:51;66.47;;;42.35;;
78834;SDS011;68187;42.682;23.352;2024-01-15T08:13:18;72.82;;;44.40;;
78834;SDS011;68187;42.682;23.352;2024-01-15T08:15:45;57.22;;;37.00;;
78834;SDS011;68187;42.682;23.352;2024-01-15T08:18:12;55.72;;;37.35;;
78834;SDS011;68187;42.682;23.352;2024-01-15T08:20:39;58.85;;;37.47;;
78834;SDS011;68187;42.682;23.352;2024-01-15T08:23:06;58.53;;;36.58;;
78834;SDS011;68187;42.682;23.352;2024-01-15T08:25:35;59.13;;;36.67;;
78834;SDS011;68187;42.682;23.352;2024-01-15T08:28:02;59.30;;;35.83;;
78834;SDS011;68187;42.682;23.352;2024-01-15T08:30:29;57.28;;;34.50;;
78834;SDS011;68187;42.682;23.352;2024-01-15T08:32:56;55.67;;;35.25;;
78834;SDS011;68187;42.682;23.352;2024-01-15T08:35:24;59.85;;;38.75;;
78834;SDS011;68187;42.682;23.352;2024-01-15T08:37:51;56.30;;;37.35;;
78834;SDS011;68187;42.682;23.352;2024-01-15T08:40:18;68.82;;;40.45;;
78834;SDS011;68187;42.682;23.352;2024-01-15T08:42:47;90.43;;;54.78;;
78834;SDS011;68187;42.682;23.352;2024-01-15T08:45:14;81.18;;;52.35;;
78834;SDS011;68187;42.682;23.352;2024-01-15T08:47:41;91.57;;;55.83;;
78834;SDS011;68187;42.682;23.352;2024-01-15T08:50:08;87.50;;;50.97;;
78834;SDS011;68187;42.682;23.352;2024-01-15T08:52:36;114.97;;;73.88;;
78834;SDS011;68187;42.682;23.352;2024-01-15T08:55:03;121.93;;;71.57;;
78834;SDS011;68187;42.682;23.352;2024-01-15T08:57:32;113.78;;;74.47;;
78834;SDS011;68187;42.682;23.352;2024-01-15T09:00:00;131.65;;;74.05;;
78834;SDS011;68187;42.682;23.352;2024-01-15T09:02:28;109.30;;;56.20;;
78834;SDS011;68187;42.682;23.352;2024-01-15T09:04:55;102.68;;;67.72;;
78834;SDS011;68187;42.682;23.352;2024-01-15T09:07:22;116.93;;;68.45;;
78834;SDS011;68187;42.682;23.352;2024-01-15T09:09:50;102.38;;;63.92;;
78834;SDS011;68187;42.682;23.352;2024-01-15T09:12:17;100.75;;;64.70;;
78834;SDS011;68187;42.682;23.352;2024-01-15T09:14:46;100.70;;;63.42;;
78834;SDS011;68187;42.682;23.352;2024-01-15T09:17:14;99.80;;;58.35;;
78834;SDS011;68187;42.682;23.352;2024-01-15T09:19:41;88.32;;;57.47;;
78834;SDS011;68187;42.682;23.352;2024-01-15T09:22:08;98.40;;;59.03;;
78834;SDS011;68187;42.682;23.352;2024-01-15T09:24:35;92.72;;;58.67;;
78834;SDS011;68187;42.682;23.352;2024-01-15T09:27:02;87.55;;;57.38;;
78834;SDS011;68187;42.682;23.352;2024-01-15T09:29:30;84.32;;;48.38;;
78834;SDS011;68187;42.682;23.352;2024-01-15T09:31:57;57.72;;;37.22;;
78834;SDS011;68187;42.682;23.352;2024-01-15T09:34:25;55.95;;;33.80;;
78834;SDS011;68187;42.682;23.352;2024-01-15T09:36:52;56.22;;;35.95;;
78834;SDS011;68187;42.682;23.352;2024-01-15T09:39:19;56.42;;;36.63;;
78834;SDS011;68187;42.682;23.352;2024-01-15T09:41:47;63.20;;;36.80;;
78834;SDS011;68187;42.682;23.352;2024-01-15T09:44:15;65.95;;;37.40;;
78834;SDS011;68187;42.682;23.352;2024-01-15T09:46:43;61.83;;;35.25;;
78834;SDS011;68187;42.682;23.352;2024-01-15T09:49:11;59.72;;;32.83;;
78834;SDS011;68187;42.682;23.352;2024-01-15T09:51:39;61.72;;;36.63;;
78834;SDS011;68187;42.682;23.352;2024-01-15T09:54:07;57.33;;;35.35;;
78834;SDS011;68187;42.682;23.352;2024-01-15T09:56:35;63.95;;;37.53;;
78834;SDS011;68187;42.682;23.352;2024-01-15T09:59:02;66.90;;;40.35;;
78834;SDS011;68187;42.682;23.352;2024-01-15T10:01:31;64.80;;;38.75;;
78834;SDS011;68187;42.682;23.352;2024-01-15T10:03:58;69.85;;;40.97;;
78834;SDS011;68187;42.682;23.352;2024-01-15T10:06:26;69.40;;;42.15;;
78834;SDS011;68187;42.682;23.352;2024-01-15T10:08:56;64.43;;;39.58;;
78834;SDS011;68187;42.682;23.352;2024-01-15T10:11:24;61.42;;;37.38;;
78834;SDS011;68187;42.682;23.352;2024-01-15T10:13:51;67.63;;;40.55;;
78834;SDS011;68187;42.682;23.352;2024-01-15T10:16:20;70.85;;;38.47;;
78834;SDS011;68187;42.682;23.352;2024-01-15T10:18:47;66.57;;;39.00;;
78834;SDS011;68187;42.682;23.352;2024-01-15T10:21:14;64.88;;;40.67;;
78834;SDS011;68187;42.682;23.352;2024-01-15T10:23:41;70.15;;;40.30;;
78834;SDS011;68187;42.682;23.352;2024-01-15T10:26:10;64.43;;;39.78;;
78834;SDS011;68187;42.682;23.352;2024-01-15T10:28:38;63.10;;;38.70;;
78834;SDS011;68187;42.682;23.352;2024-01-15T10:31:06;72.78;;;40.50;;
78834;SDS011;68187;42.682;23.352;2024-01-15T10:33:33;68.80;;;39.25;;
78834;SDS011;68187;42.682;23.352;2024-01-15T10:36:00;67.70;;;41.20;;
78834;SDS011;68187;42.682;23.352;2024-01-15T10:38:27;58.72;;;37.78;;
78834;SDS011;68187;42.682;23.352;2024-01-15T10:40:54;65.75;;;38.80;;
78834;SDS011;68187;42.682;23.352;2024-01-15T10:43:23;56.55;;;35.50;;
78834;SDS011;68187;42.682;23.352;2024-01-15T10:45:50;60.58;;;36.92;;
78834;SDS011;68187;42.682;23.352;2024-01-15T10:48:18;63.08;;;35.10;;
78834;SDS011;68187;42.682;23.352;2024-01-15T10:50:45;66.82;;;42.92;;
78834;SDS011;68187;42.682;23.352;2024-01-15T10:53:14;68.95;;;41.15;;
78834;SDS011;68187;42.682;23.352;2024-01-15T10:55:42;75.47;;;42.00;;
78834;SDS011;68187;42.682;23.352;2024-01-15T10:58:09;63.20;;;36.30;;
78834;SDS011;68187;42.682;23.352;2024-01-15T11:00:38;65.40;;;39.15;;
78834;SDS011;68187;42.682;23.352;2024-01-15T11:03:05;55.38;;;34.67;;
78834;SDS011;68187;42.682;23.352;2024-01-15T11:05:33;50.55;;;32.95;;
78834;SDS011;68187;42.682;23.352;2024-01-15T11:08:04;54.33;;;31.65;;
78834;SDS011;68187;42.682;23.352;2024-01-15T11:10:38;55.50;;;31.23;;
78834;SDS011;68187;42.682;23.352;2024-01-15T11:13:10;52.10;;;33.08;;
78834;SDS011;68187;42.682;23.352;2024-01-15T11:15:57;50.28;;;31.38;;
78834;SDS011;68187;42.682;23.352;2024-01-15T11:18:26;51.35;;;30.60;;
78834;SDS011;68187;42.682;23.352;2024-01-15T11:23:50;40.85;;;25.77;;
78834;SDS011;68187;42.682;23.352;2024-01-15T11:26:28;47.67;;;27.02;;
78834;SDS011;68187;42.682;23.352;2024-01-15T11:29:01;44.55;;;28.90;;
78834;SDS011;68187;42.682;23.352;2024-01-15T11:31:56;46.22;;;25.98;;
78834;SDS011;68187;42.682;23.352;2024-01-15T11:43:03;39.70;;;22.48;;
78834;SDS011;68187;42.682;23.352;2024-01-15T11:45:31;37.25;;;23.13;;
78834;SDS011;68187;42.682;23.352;2024-01-15T11:48:13;39.03;;;24.02;;
78834;SDS011;68187;42.682;23.352;2024-01-15T11:50:41;38.80;;;23.27;;
78834;SDS011;68187;42.682;23.352;2024-01-15T11:53:21;35.67;;;20.33;;
78834;SDS011;68187;42.682;23.352;2024-01-15T11:56:01;36.58;;;21.52;;
78834;SDS011;68187;42.682;23.352;2024-01-15T11:58:29;32.53;;;22.40;;
78834;SDS011;68187;42.682;23.352;2024-01-15T12:00:57;39.40;;;22.70;;
78834;SDS011;68187;42.682;23.352;2024-01-15T12:03:26;34.67;;;20.67;;
78834;SDS011;68187;42.682;23.352;2024-01-15T12:05:53;36.60;;;21.65;;
78834;SDS011;68187;42.682;23.352;2024-01-15T12:08:23;34.05;;;21.08;;
78834;SDS011;68187;42.682;23.352;2024-01-15T12:10:51;36.65;;;20.98;;
78834;SDS011;68187;42.682;23.352;2024-01-15T12:13:18;37.58;;;21.27;;
78834;SDS011;68187;42.682;23.352;2024-01-15T12:15:46;39.40;;;22.88;;
78834;SDS011;68187;42.682;23.352;2024-01-15T12:18:14;37.20;;;22.50;;
78834;SDS011;68187;42.682;23.352;2024-01-15T12:20:44;36.05;;;19.55;;
78834;SDS011;68187;42.682;23.352;2024-01-15T12:23:13;37.30;;;23.70;;
78834;SDS011;68187;42.682;23.352;2024-01-15T12:25:40;42.83;;;23.55;;
78834;SDS011;68187;42.682;23.352;2024-01-15T12:28:08;37.03;;;22.73;;
78834;SDS011;68187;42.682;23.352;2024-01-15T12:30:35;33.78;;;21.13;;
78834;SDS011;68187;42.682;23.352;2024-01-15T12:33:03;35.90;;;23.00;;
78834;SDS011;68187;42.682;23.352;2024-01-15T12:35:30;33.47;;;22.35;;
78834;SDS011;68187;42.682;23.352;2024-01-15T12:38:00;35.35;;;21.58;;
78834;SDS011;68187;42.682;23.352;2024-01-15T12:40:28;38.17;;;22.73;;
78834;SDS011;68187;42.682;23.352;2024-01-15T12:42:56;40.22;;;24.60;;
78834;SDS011;68187;42.682;23.352;2024-01-15T12:45:24;37.08;;;23.65;;
78834;SDS011;68187;42.682;23.352;2024-01-15T12:47:51;40.83;;;24.08;;
78834;SDS011;68187;42.682;23.352;2024-01-15T12:50:18;33.13;;;21.70;;
78834;SDS011;68187;42.682;23.352;2024-01-15T12:52:45;38.20;;;22.00;;
78834;SDS011;68187;42.682;23.352;2024-01-15T12:55:13;36.95;;;23.80;;
78834;SDS011;68187;42.682;23.352;2024-01-15T12:57:40;37.22;;;20.45;;
78834;SDS011;68187;42.682;23.352;2024-01-15T13:00:07;34.80;;;19.65;;
78834;SDS011;68187;42.682;23.352;2024-01-15T13:02:37;35.50;;;21.50;;
78834;SDS011;68187;42.682;23.352;2024-01-15T13:05:04;34.90;;;21.90;;
78834;SDS011;68187;42.682;23.352;2024-01-15T13:07:32;41.17;;;20.73;;
78834;SDS011;68187;42.682;23.352;2024-01-15T13:09:59;36.22;;;22.88;;
78834;SDS011;68187;42.682;23.352;2024-01-15T13:12:27;35.25;;;20.73;;
78834;SDS011;68187;42.682;23.352;2024-01-15T13:14:54;36.92;;;22.10;;
78834;SDS011;68187;42.682;23.352;2024-01-15T13:17:21;38.72;;;21.65;;
78834;SDS011;68187;42.682;23.352;2024-01-15T13:19:48;30.70;;;21.80;;
78834;SDS011;68187;42.682;23.352;2024-01-15T13:22:15;36.08;;;22.52;;
78834;SDS011;68187;42.682;23.352;2024-01-15T13:24:42;31.92;;;22.42;;
78834;SDS011;68187;42.682;23.352;2024-01-15T13:27:09;34.85;;;21.77;;
78834;SDS011;68187;42.682;23.352;2024-01-15T13:29:38;33.03;;;21.35;;
78834;SDS011;68187;42.682;23.352;2024-01-15T13:32:05;32.35;;;21.92;;
78834;SDS011;68187;42.682;23.352;2024-01-15T13:34:32;33.75;;;19.92;;
78834;SDS011;68187;42.682;23.352;2024-01-15T13:37:00;36.25;;;22.08;;
78834;SDS011;68187;42.682;23.352;2024-01-15T13:39:27;36.25;;;22.77;;
78834;SDS011;68187;42.682;23.352;2024-01-15T13:41:58;36.42;;;23.23;;
78834;SDS011;68187;42.682;23.352;2024-01-15T13:44:25;34.65;;;21.15;;
78834;SDS011;68187;42.682;23.352;2024-01-15T13:46:54;38.45;;;24.73;;
78834;SDS011;68187;42.682;23.352;2024-01-15T13:49:22;36.25;;;21.17;;
78834;SDS011;68187;42.682;23.352;2024-01-15T13:51:49;38.00;;;25.60;;
78834;SDS011;68187;42.682;23.352;2024-01-15T13:54:16;43.30;;;25.90;;
78834;SDS011;68187;42.682;23.352;2024-01-15T13:56:45;37.20;;;21.17;;
78834;SDS011;68187;42.682;23.352;2024-01-15T13:59:12;35.35;;;22.23;;
78834;SDS011;68187;42.682;23.352;2024-01-15T14:01:39;42.47;;;21.95;;
78834;SDS011;68187;42.682;23.352;2024-01-15T14:04:07;42.13;;;21.83;;
78834;SDS011;68187;42.682;23.352;2024-01-15T14:06:34;38.78;;;24.15;;
78834;SDS011;68187;42.682;23.352;2024-01-15T14:09:01;35.97;;;22.27;;
78834;SDS011;68187;42.682;23.352;2024-01-15T14:11:29;43.20;;;23.10;;
78834;SDS011;68187;42.682;23.352;2024-01-15T14:13:56;39.65;;;21.48;;
78834;SDS011;68187;42.682;23.352;2024-01-15T14:16:23;38.22;;;22.00;;
78834;SDS011;68187;42.682;23.352;2024-01-15T14:18:50;38.42;;;24.08;;
78834;SDS011;68187;42.682;23.352;2024-01-15T14:21:19;45.25;;;23.08;;
78834;SDS011;68187;42.682;23.352;2024-01-15T14:23:46;42.47;;;22.33;;